M I D A S
Marine Information and Data Acquisition System
Tripno 1771 of the Zeeleeuw from 2009-09-07 06:59:02 to 2009-09-07 16:10:13
Back to CruiseResearch ActivitiesStationsMapUnderway DataData graphs

EquipmentUnitsComment
TimeDGPSUTC
LatitudeDGPSDM.mWGS84
LongitudeDGPSDM.mWGS84
HeadingGyrodeg 
SOGDGPSknotsSpeed over ground
COGDGPSdegCourse over ground
DepthEcho soundermeters200 kHz
Missing or incorrect values are displayed as -999
Navigation data collected by the RV Zeeleeuw from 2009-09-07 06:49:17 to 2009-09-07 18:52:51
                                                                                    Next 1000 lines
Time Latitude Longitude Heading SOG COG Depth
2009-09-07 06:49:26 51°13.662 2°55.952 111.6 1.3 291 6.8
2009-09-07 06:49:31 51°13.663 2°55.949 111.6 1.6 293 6.9
2009-09-07 06:49:37 51°13.664 2°55.945 112.1 1.8 292 6.8
2009-09-07 06:49:42 51°13.665 2°55.941 112.6 2.1 295 -999
2009-09-07 06:49:47 51°13.667 2°55.936 113.1 2.3 294 -999
2009-09-07 06:49:53 51°13.668 2°55.93 113.3 2.5 297 -999
2009-09-07 06:49:59 51°13.67 2°55.924 113.3 2.6 296 -999
2009-09-07 06:50:05 51°13.672 2°55.917 112.6 2.8 295 -999
2009-09-07 06:50:10 51°13.674 2°55.911 111.8 3.1 295 -999
2009-09-07 06:50:15 51°13.676 2°55.905 110.5 3.2 292 -999
2009-09-07 06:50:20 51°13.677 2°55.898 109.7 3.4 291 -999
2009-09-07 06:50:25 51°13.679 2°55.89 108.6 3.5 291 -999
2009-09-07 06:50:30 51°13.681 2°55.883 107.9 3.7 289 -999
2009-09-07 06:50:35 51°13.683 2°55.875 107.3 3.7 289 -999
2009-09-07 06:50:40 51°13.684 2°55.867 106.8 3.8 288 -999
2009-09-07 06:50:45 51°13.686 2°55.859 105.6 3.8 287 -999
2009-09-07 06:50:50 51°13.687 2°55.851 104.2 3.7 286 -999
2009-09-07 06:50:55 51°13.689 2°55.843 102.4 3.7 285 -999
2009-09-07 06:51:00 51°13.69 2°55.835 100.6 3.6 283 -999
2009-09-07 06:51:05 51°13.691 2°55.827 98.7 3.6 282 -999
2009-09-07 06:51:10 51°13.692 2°55.82 96.7 3.5 281 -999
2009-09-07 06:51:15 51°13.693 2°55.812 94.8 3.5 280 -999
2009-09-07 06:51:20 51°13.693 2°55.805 92.7 3.3 277 -999
2009-09-07 06:51:25 51°13.694 2°55.798 90.4 3.2 275 -999
2009-09-07 06:51:30 51°13.694 2°55.791 88 3.1 273 -999
2009-09-07 06:51:35 51°13.694 2°55.784 85.7 3 272 -999
2009-09-07 06:51:40 51°13.694 2°55.778 83.5 2.8 269 -999
2009-09-07 06:51:45 51°13.694 2°55.772 81.2 2.7 268 -999
2009-09-07 06:51:50 51°13.694 2°55.766 79 2.6 267 -999
2009-09-07 06:51:55 51°13.694 2°55.761 77 2.5 266 -999
2009-09-07 06:52:00 51°13.694 2°55.756 75.2 2 267 -999
2009-09-07 06:52:05 51°13.694 2°55.753 73 1.3 272 11.1
2009-09-07 06:52:10 51°13.694 2°55.751 71.3 0.8 286 11.2
2009-09-07 06:52:15 51°13.694 2°55.751 68 0.5 328 11.4
2009-09-07 06:52:19 51°13.695 2°55.751 63.2 0.5 350 11.4
2009-09-07 06:52:24 51°13.696 2°55.751 55.2 0.7 3 11.4
2009-09-07 06:52:29 51°13.697 2°55.751 48.9 0.8 12 11.4
2009-09-07 06:52:34 51°13.698 2°55.751 43.4 0.9 10 11.6
2009-09-07 06:52:38 51°13.699 2°55.752 38.2 1 15 11.5
2009-09-07 06:52:43 51°13.701 2°55.752 33.4 1 12 11.4
2009-09-07 06:52:48 51°13.702 2°55.753 28.8 1 8 -999
2009-09-07 06:52:53 51°13.703 2°55.753 25.2 0.8 3 11.4
2009-09-07 06:52:58 51°13.704 2°55.753 22.5 0.5 359 11.4
2009-09-07 06:53:03 51°13.704 2°55.753 20.3 0.2 313 11.4
2009-09-07 06:53:07 51°13.704 2°55.752 16.6 0.3 224 11.3
2009-09-07 06:53:12 51°13.703 2°55.752 13.7 0.6 207 11.6
2009-09-07 06:53:17 51°13.702 2°55.751 11.6 0.8 196 11.3
2009-09-07 06:53:22 51°13.701 2°55.751 9.2 0.8 201 11.5
2009-09-07 06:53:27 51°13.7 2°55.75 7 0.7 195 11.7
2009-09-07 06:53:31 51°13.7 2°55.75 5.1 0.5 209 11.5
2009-09-07 06:53:36 51°13.7 2°55.749 3.4 0.2 239 11.6
2009-09-07 06:53:41 51°13.7 2°55.749 0.7 0.4 314 11.6
2009-09-07 06:53:47 51°13.701 2°55.748 357.4 0.7 336 11.7
2009-09-07 06:53:51 51°13.702 2°55.747 352.6 1.1 332 11.4
2009-09-07 06:53:56 51°13.704 2°55.746 346.1 1.6 334 11.4
2009-09-07 06:54:01 51°13.707 2°55.744 340.5 2.2 333 11.2
2009-09-07 06:54:07 51°13.71 2°55.74 336.1 2.7 329 11.1
2009-09-07 06:54:11 51°13.713 2°55.737 332 3.2 330 11.4
2009-09-07 06:54:16 51°13.717 2°55.733 330.4 3.7 328 11.1
2009-09-07 06:54:22 51°13.723 2°55.728 329.8 4.2 329 10.9
2009-09-07 06:54:27 51°13.729 2°55.722 329.8 4.7 328 10.7
2009-09-07 06:54:31 51°13.734 2°55.718 330.6 5 330 10.9
2009-09-07 06:54:35 51°13.739 2°55.713 331.3 5.4 329 10.7
2009-09-07 06:54:42 51°13.748 2°55.704 332 5.8 332 10.5
2009-09-07 06:54:46 51°13.754 2°55.699 332.6 6.1 330 10.4
2009-09-07 06:54:51 51°13.762 2°55.692 333.3 6.4 333 10.4
2009-09-07 06:54:56 51°13.77 2°55.686 333.9 6.7 332 10.4
2009-09-07 06:55:01 51°13.778 2°55.679 333.9 6.9 333 10.3
2009-09-07 06:55:07 51°13.789 2°55.67 334.1 7.1 333 10.1
2009-09-07 06:55:11 51°13.796 2°55.664 334.7 7.3 333 10.3
2009-09-07 06:55:16 51°13.805 2°55.657 334.7 7.5 332 10.1
2009-09-07 06:55:21 51°13.815 2°55.649 334.7 7.6 333 10
2009-09-07 06:55:27 51°13.826 2°55.64 334.8 7.8 333 9.9
2009-09-07 06:55:31 51°13.834 2°55.634 335.3 7.9 334 9.8
2009-09-07 06:55:36 51°13.844 2°55.626 336 8 335 10
2009-09-07 06:55:42 51°13.856 2°55.617 336.1 8.2 335 10.3
2009-09-07 06:55:46 51°13.865 2°55.611 336.1 8.4 334 10.3
2009-09-07 06:55:51 51°13.875 2°55.603 336.1 8.5 334 10.3
2009-09-07 06:55:56 51°13.886 2°55.594 336.1 8.6 334 10.3
2009-09-07 06:56:01 51°13.897 2°55.586 336.1 8.7 333 10.2
2009-09-07 06:56:07 51°13.91 2°55.576 335.6 8.8 333 10.3
2009-09-07 06:56:11 51°13.919 2°55.569 335.9 8.9 334 10.2
2009-09-07 06:56:17 51°13.932 2°55.558 336.2 9 334 10.2
2009-09-07 06:56:22 51°13.943 2°55.549 336.2 9.1 334 10.2
2009-09-07 06:56:26 51°13.953 2°55.542 336 9.2 334 10.2
2009-09-07 06:56:31 51°13.964 2°55.534 336.5 9.2 335 10.2
2009-09-07 06:56:36 51°13.976 2°55.525 336.9 9.3 334 10.2
2009-09-07 06:56:42 51°13.99 2°55.514 336.9 9.4 334 10.2
2009-09-07 06:56:46 51°14 2°55.507 336.5 9.5 334 10
2009-09-07 06:56:51 51°14.011 2°55.498 336.2 9.5 334 9.6
2009-09-07 06:56:56 51°14.023 2°55.488 336.1 9.6 334 10.1
2009-09-07 06:57:02 51°14.037 2°55.477 335.7 9.6 333 9.6
2009-09-07 06:57:07 51°14.05 2°55.468 335.6 9.6 334 9.9
2009-09-07 06:57:11 51°14.059 2°55.46 336.7 9.6 335 9.7
2009-09-07 06:57:16 51°14.071 2°55.451 336.9 9.6 335 10.2
2009-09-07 06:57:22 51°14.085 2°55.44 336.3 9.6 332 9.8
2009-09-07 06:57:26 51°14.095 2°55.432 335 9.7 332 9.2
2009-09-07 06:57:31 51°14.107 2°55.422 333.9 9.7 331 9.9
2009-09-07 06:57:36 51°14.119 2°55.411 333.6 9.7 332 10.2
2009-09-07 06:57:41 51°14.13 2°55.401 334.1 9.7 331 10.7
2009-09-07 06:57:47 51°14.145 2°55.388 333.9 9.7 330 10.3
2009-09-07 06:57:51 51°14.154 2°55.379 332.5 9.8 329 10.2
2009-09-07 06:57:55 51°14.163 2°55.37 331.2 9.8 328 10.3
2009-09-07 06:58:01 51°14.177 2°55.356 330.2 9.8 327 10.3
2009-09-07 06:58:06 51°14.188 2°55.344 329 9.7 325 10.5
2009-09-07 06:58:11 51°14.199 2°55.331 327.5 9.8 324 10.1
2009-09-07 06:58:17 51°14.212 2°55.315 326.5 9.8 323 10
2009-09-07 06:58:22 51°14.223 2°55.302 325.7 9.8 321 10.4
2009-09-07 06:58:26 51°14.231 2°55.29 323.2 10 318 10.3
2009-09-07 06:58:31 51°14.241 2°55.275 320.5 10 317 10
2009-09-07 06:58:37 51°14.253 2°55.256 318.9 10 315 10.1
2009-09-07 06:58:42 51°14.263 2°55.24 317.6 10.1 314 9.8
2009-09-07 06:58:46 51°14.27 2°55.227 316.3 10.1 313 10.1
2009-09-07 06:58:51 51°14.28 2°55.21 315 10.2 312 10.3
2009-09-07 06:58:56 51°14.289 2°55.193 313.6 10.2 311 10
2009-09-07 06:59:02 51°14.3 2°55.172 312.2 10.3 309 9.7
2009-09-07 06:59:07 51°14.309 2°55.154 310.7 10.3 308 9.6
2009-09-07 06:59:11 51°14.316 2°55.14 310.3 10.4 309 10.1
2009-09-07 06:59:16 51°14.325 2°55.122 311.5 10.4 311 10.2
2009-09-07 06:59:22 51°14.336 2°55.101 312.1 10.5 309 9.7
2009-09-07 06:59:26 51°14.344 2°55.086 311.5 10.5 309 9.7
2009-09-07 06:59:31 51°14.353 2°55.068 311 10.5 310 9.4
2009-09-07 06:59:36 51°14.362 2°55.05 310.9 10.5 310 9.4
2009-09-07 06:59:41 51°14.372 2°55.033 312.2 10.5 312 9
2009-09-07 06:59:47 51°14.383 2°55.012 313.5 10.4 311 8.8
2009-09-07 06:59:51 51°14.39 2°54.998 313.2 10.5 308 8.8
2009-09-07 06:59:56 51°14.399 2°54.979 311.3 10.5 306 8.9
2009-09-07 07:00:01 51°14.407 2°54.96 309.8 10.5 306 9
2009-09-07 07:00:07 51°14.418 2°54.937 309.3 10.5 306 9.1
2009-09-07 07:00:11 51°14.425 2°54.922 309.3 10.6 306 9.2
2009-09-07 07:00:17 51°14.435 2°54.899 309.4 10.6 306 9.3
2009-09-07 07:00:22 51°14.444 2°54.88 310 10.7 306 9.3
2009-09-07 07:00:26 51°14.451 2°54.865 310.5 10.8 306 9.4
2009-09-07 07:00:31 51°14.46 2°54.846 310.7 10.9 306 9.4
2009-09-07 07:00:37 51°14.47 2°54.821 310 11.1 303 9.5
2009-09-07 07:00:42 51°14.478 2°54.8 309.1 11.3 302 9.5
2009-09-07 07:00:47 51°14.487 2°54.779 308.5 11.4 302 9.4
2009-09-07 07:00:51 51°14.494 2°54.761 308.1 11.5 302 9.3
2009-09-07 07:00:56 51°14.502 2°54.74 308.3 11.7 302 9.3
2009-09-07 07:01:02 51°14.513 2°54.714 309.1 11.7 303 9.3
2009-09-07 07:01:06 51°14.52 2°54.696 309.8 11.7 302 9.2
2009-09-07 07:01:11 51°14.528 2°54.674 308.8 11.7 300 9.2
2009-09-07 07:01:16 51°14.536 2°54.651 305.9 11.8 297 9.2
2009-09-07 07:01:22 51°14.545 2°54.623 303.3 11.9 297 9.2
2009-09-07 07:01:27 51°14.553 2°54.6 303.3 11.9 299 9.2
2009-09-07 07:01:31 51°14.559 2°54.581 304.3 11.9 298 9.1
2009-09-07 07:01:35 51°14.565 2°54.563 304 11.9 297 9.2
2009-09-07 07:01:41 51°14.574 2°54.534 303.2 11.9 297 9.3
2009-09-07 07:01:47 51°14.583 2°54.506 302.8 11.9 297 9.3
2009-09-07 07:01:51 51°14.589 2°54.487 302.4 11.9 296 9.3
2009-09-07 07:01:56 51°14.596 2°54.464 302 11.9 296 9.3
2009-09-07 07:02:01 51°14.603 2°54.44 301.8 11.9 296 9.3
2009-09-07 07:02:07 51°14.612 2°54.412 301.8 11.9 297 9.3
2009-09-07 07:02:11 51°14.618 2°54.393 302 12 296 9.3
2009-09-07 07:02:16 51°14.625 2°54.369 301.8 11.9 296 9.3
2009-09-07 07:02:22 51°14.634 2°54.34 301.5 11.9 296 9.3
2009-09-07 07:02:27 51°14.641 2°54.317 301.2 11.9 296 9.3
2009-09-07 07:02:32 51°14.648 2°54.293 301.4 11.9 296 9.3
2009-09-07 07:02:36 51°14.654 2°54.274 301.6 11.9 296 9.5
2009-09-07 07:02:42 51°14.663 2°54.246 301.7 11.9 296 9.5
2009-09-07 07:02:46 51°14.669 2°54.227 301.7 11.9 297 9.4
2009-09-07 07:02:51 51°14.676 2°54.204 301.9 11.9 297 9.4
2009-09-07 07:02:56 51°14.683 2°54.18 302 11.9 296 9.3
2009-09-07 07:03:01 51°14.691 2°54.157 302 11.9 297 9.3
2009-09-07 07:03:07 51°14.7 2°54.129 302 11.9 297 9.2
2009-09-07 07:03:11 51°14.706 2°54.11 302.3 11.8 297 9.4
2009-09-07 07:03:15 51°14.711 2°54.092 302.3 11.8 297 9.2
2009-09-07 07:03:22 51°14.722 2°54.059 302.3 11.8 297 9.4
2009-09-07 07:03:26 51°14.728 2°54.04 302.3 11.8 297 9.2
2009-09-07 07:03:31 51°14.736 2°54.017 302.6 11.8 297 9.3
2009-09-07 07:03:36 51°14.743 2°53.994 302.5 11.8 297 9
2009-09-07 07:03:42 51°14.752 2°53.966 302.2 11.7 297 8.9
2009-09-07 07:03:47 51°14.759 2°53.943 302.2 11.8 297 8.9
2009-09-07 07:03:51 51°14.765 2°53.924 301.5 11.8 295 8.8
2009-09-07 07:03:56 51°14.772 2°53.901 300.8 11.7 297 8.7
2009-09-07 07:04:01 51°14.779 2°53.878 300.8 11.7 295 8.6
2009-09-07 07:04:07 51°14.787 2°53.849 300.5 11.7 295 8.7
2009-09-07 07:04:11 51°14.793 2°53.831 299.9 11.7 294 8.6
2009-09-07 07:04:16 51°14.799 2°53.806 298.2 11.8 292 8.7
2009-09-07 07:04:22 51°14.806 2°53.777 297.3 11.8 292 8.7
2009-09-07 07:04:26 51°14.811 2°53.758 296.6 11.8 291 8.6
2009-09-07 07:04:31 51°14.816 2°53.734 295.5 11.8 290 8.7
2009-09-07 07:04:36 51°14.822 2°53.709 294.9 11.8 290 8.8
2009-09-07 07:04:41 51°14.827 2°53.684 294.2 11.8 289 8.7
2009-09-07 07:04:47 51°14.834 2°53.654 293.3 11.8 289 8.7
2009-09-07 07:04:51 51°14.838 2°53.634 293.3 11.8 289 8.8
2009-09-07 07:04:56 51°14.843 2°53.61 293 11.9 288 8.7
2009-09-07 07:05:01 51°14.848 2°53.585 292.7 11.9 289 8.8
2009-09-07 07:05:07 51°14.854 2°53.555 292.9 11.8 289 8.6
2009-09-07 07:05:11 51°14.859 2°53.535 293 11.9 289 8.7
2009-09-07 07:05:17 51°14.865 2°53.505 293.3 11.9 288 8.7
2009-09-07 07:05:22 51°14.87 2°53.48 293.3 11.9 289 8.6
2009-09-07 07:05:26 51°14.874 2°53.46 293.3 11.9 288 8.6
2009-09-07 07:05:31 51°14.88 2°53.435 293 11.9 288 8.7
2009-09-07 07:05:37 51°14.886 2°53.405 293 11.9 288 8.7
2009-09-07 07:05:42 51°14.891 2°53.381 293 11.9 289 8.7
2009-09-07 07:05:47 51°14.896 2°53.355 292.7 11.9 288 8.7
2009-09-07 07:05:51 51°14.901 2°53.336 292.9 11.9 289 8.7
2009-09-07 07:05:56 51°14.906 2°53.311 293.2 11.9 289 8.6
2009-09-07 07:06:02 51°14.912 2°53.281 293.2 11.8 289 8.7
2009-09-07 07:06:06 51°14.916 2°53.261 293 11.9 289 8.7
2009-09-07 07:06:11 51°14.922 2°53.236 293.1 11.8 289 8.7
2009-09-07 07:06:16 51°14.927 2°53.211 293.4 11.9 289 8.8
2009-09-07 07:06:21 51°14.932 2°53.187 293.4 11.9 289 8.8
2009-09-07 07:06:27 51°14.939 2°53.157 293.5 11.9 289 8.9
2009-09-07 07:06:31 51°14.943 2°53.137 293.7 11.9 289 8.9
2009-09-07 07:06:35 51°14.947 2°53.117 293.3 11.9 289 8.9
2009-09-07 07:06:41 51°14.954 2°53.087 293.2 11.9 289 8.9
2009-09-07 07:06:47 51°14.96 2°53.057 293.2 11.9 289 8.9
2009-09-07 07:06:51 51°14.965 2°53.037 293.7 11.9 290 8.9
2009-09-07 07:06:57 51°14.971 2°53.008 294 12 289 8.9
2009-09-07 07:07:02 51°14.977 2°52.983 294 11.9 290 8.9
2009-09-07 07:07:06 51°14.981 2°52.963 293.9 11.9 290 8.9
2009-09-07 07:07:11 51°14.987 2°52.938 294.3 11.9 290 9
2009-09-07 07:07:17 51°14.994 2°52.909 294.5 12 290 9.1
2009-09-07 07:07:22 51°15 2°52.884 295.2 12 291 9.1
2009-09-07 07:07:27 51°15.006 2°52.859 295.6 12 291 9.1
2009-09-07 07:07:31 51°15.011 2°52.839 295.5 12 291 9.1
2009-09-07 07:07:36 51°15.017 2°52.815 295.7 12 291 9.1
2009-09-07 07:07:42 51°15.024 2°52.785 296.2 12 292 9.2
2009-09-07 07:07:46 51°15.029 2°52.766 296.3 12 292 9.2
2009-09-07 07:07:51 51°15.035 2°52.741 296.5 12 292 9.2
2009-09-07 07:07:57 51°15.042 2°52.711 296.2 12 290 9.2
2009-09-07 07:08:02 51°15.048 2°52.686 294.9 12 290 9.2
2009-09-07 07:08:07 51°15.054 2°52.661 294.8 12 290 9.3
2009-09-07 07:08:11 51°15.058 2°52.641 294.3 12 289 9.3
2009-09-07 07:08:15 51°15.062 2°52.621 293.8 12 289 9.3
2009-09-07 07:08:22 51°15.07 2°52.586 293.6 12 289 9.3
2009-09-07 07:08:27 51°15.075 2°52.56 293.4 12 289 9.3
2009-09-07 07:08:31 51°15.08 2°52.54 293.3 12 288 9.3
2009-09-07 07:08:36 51°15.085 2°52.515 293.2 12 289 9.2
2009-09-07 07:08:41 51°15.09 2°52.49 293.3 12.1 289 9.3
2009-09-07 07:08:47 51°15.097 2°52.46 293.6 12 289 9.4
2009-09-07 07:08:51 51°15.102 2°52.44 294.4 12 290 9.4
2009-09-07 07:08:56 51°15.107 2°52.415 295 12 291 9.4
2009-09-07 07:09:02 51°15.114 2°52.385 295.2 12 291 9.4
2009-09-07 07:09:06 51°15.119 2°52.365 295.6 12 291 9.5
2009-09-07 07:09:11 51°15.125 2°52.34 296.3 12 292 9.5
2009-09-07 07:09:16 51°15.132 2°52.316 296.7 12.1 292 9.5
2009-09-07 07:09:22 51°15.139 2°52.286 296.8 12.1 292 9.6
2009-09-07 07:09:26 51°15.144 2°52.266 296.8 12.1 292 9.7
2009-09-07 07:09:31 51°15.15 2°52.241 296.8 12.1 292 9.6
2009-09-07 07:09:36 51°15.157 2°52.217 297 12.1 293 9.7
2009-09-07 07:09:41 51°15.163 2°52.192 297.8 12.1 293 9.8
2009-09-07 07:09:47 51°15.171 2°52.163 298.5 12.1 294 9.8
2009-09-07 07:09:51 51°15.177 2°52.143 299 12.1 293 9.8
2009-09-07 07:09:57 51°15.185 2°52.113 299.1 12.1 294 9.9
2009-09-07 07:10:02 51°15.192 2°52.089 299.1 12.1 294 9.9
2009-09-07 07:10:06 51°15.197 2°52.069 299 12.1 294 10
2009-09-07 07:10:11 51°15.204 2°52.044 299 12.2 294 10
2009-09-07 07:10:16 51°15.21 2°52.02 299 12.2 294 10
2009-09-07 07:10:22 51°15.219 2°51.99 299.1 12.2 294 10.1
2009-09-07 07:10:27 51°15.225 2°51.965 299.1 12.2 293 10.3
2009-09-07 07:10:31 51°15.231 2°51.945 299 12.2 293 10.3
2009-09-07 07:10:36 51°15.237 2°51.921 298.9 12.2 293 10.4
2009-09-07 07:10:41 51°15.243 2°51.897 298 12.2 291 10.3
2009-09-07 07:10:47 51°15.25 2°51.865 295.8 12.2 289 10.4
2009-09-07 07:10:51 51°15.255 2°51.845 294.8 12.2 289 10.5
2009-09-07 07:10:56 51°15.26 2°51.819 294 12.2 287 10.6
2009-09-07 07:11:02 51°15.266 2°51.788 293.2 12.2 288 10.7
2009-09-07 07:11:06 51°15.269 2°51.767 290.8 12.2 282 10.7
2009-09-07 07:11:11 51°15.272 2°51.741 288 12.2 283 10.6
2009-09-07 07:11:16 51°15.276 2°51.714 286.4 12.2 281 10.7
2009-09-07 07:11:21 51°15.279 2°51.687 284.7 12.2 279 10.7
2009-09-07 07:11:27 51°15.282 2°51.655 283.7 12.3 278 10.8
2009-09-07 07:11:31 51°15.283 2°51.634 282.2 12.3 278 10.8
2009-09-07 07:11:37 51°15.286 2°51.602 281.2 12.3 277 10.8
2009-09-07 07:11:42 51°15.288 2°51.575 280.2 12.3 276 10.9
2009-09-07 07:11:46 51°15.289 2°51.553 279.5 12.3 276 10.8
2009-09-07 07:11:51 51°15.291 2°51.526 279.1 12.4 275 10.9
2009-09-07 07:11:57 51°15.292 2°51.493 278.8 12.4 275 11
2009-09-07 07:12:02 51°15.294 2°51.466 278.4 12.3 275 10.9
2009-09-07 07:12:07 51°15.295 2°51.439 278.1 12.3 275 11
2009-09-07 07:12:11 51°15.296 2°51.417 278.1 12.4 274 11
2009-09-07 07:12:16 51°15.298 2°51.389 278.1 12.4 275 11
2009-09-07 07:12:22 51°15.299 2°51.357 278 12.4 275 11.1
2009-09-07 07:12:26 51°15.301 2°51.335 278.1 12.4 275 11.1
2009-09-07 07:12:31 51°15.302 2°51.307 278.6 12.4 275 11.1
2009-09-07 07:12:36 51°15.304 2°51.28 278.7 12.4 275 11.2
2009-09-07 07:12:42 51°15.306 2°51.247 278.7 12.4 275 11.2
2009-09-07 07:12:47 51°15.307 2°51.22 278.5 12.4 275 11.2
2009-09-07 07:12:51 51°15.308 2°51.198 278.4 12.4 275 11.2
2009-09-07 07:12:56 51°15.31 2°51.171 278.5 12.4 275 11.1
2009-09-07 07:13:01 51°15.311 2°51.144 278.6 12.4 275 11.3
2009-09-07 07:13:07 51°15.313 2°51.111 278.4 12.4 275 11.3
2009-09-07 07:13:11 51°15.314 2°51.089 278.3 12.4 275 11.3
2009-09-07 07:13:15 51°15.315 2°51.067 278.1 12.4 275 11.4
2009-09-07 07:13:21 51°15.317 2°51.034 278.1 12.4 275 11.4
2009-09-07 07:13:27 51°15.319 2°51.001 278 12.5 275 11.4
2009-09-07 07:13:31 51°15.32 2°50.979 278.4 12.5 275 11.4
2009-09-07 07:13:37 51°15.322 2°50.947 278.8 12.4 275 11.3
2009-09-07 07:13:42 51°15.324 2°50.919 278.8 12.4 275 11.4
2009-09-07 07:13:46 51°15.325 2°50.898 278.7 12.4 275 11.4
2009-09-07 07:13:52 51°15.327 2°50.865 278.6 12.5 275 11.5
2009-09-07 07:13:56 51°15.328 2°50.843 278.5 12.4 275 11.4
2009-09-07 07:14:02 51°15.33 2°50.81 278.6 12.4 275 11.5
2009-09-07 07:14:06 51°15.331 2°50.788 278.7 12.4 275 11.5
2009-09-07 07:14:12 51°15.333 2°50.756 278.5 12.4 275 11.4
2009-09-07 07:14:16 51°15.334 2°50.734 278.5 12.4 276 11.5
2009-09-07 07:14:22 51°15.336 2°50.701 279.1 12.4 276 11.5
2009-09-07 07:14:26 51°15.338 2°50.679 279.2 12.4 275 11.5
2009-09-07 07:14:31 51°15.339 2°50.652 279.1 12.4 276 11.3
2009-09-07 07:14:37 51°15.341 2°50.619 278.8 12.4 275 11.5
2009-09-07 07:14:42 51°15.343 2°50.591 279 12.4 276 11.5
2009-09-07 07:14:47 51°15.344 2°50.564 279.3 12.4 275 11.6
2009-09-07 07:14:51 51°15.346 2°50.542 279 12.4 275 11.6
2009-09-07 07:14:55 51°15.347 2°50.52 278.8 12.4 276 11.6
2009-09-07 07:15:02 51°15.349 2°50.482 278.9 12.4 275 11.6
2009-09-07 07:15:07 51°15.351 2°50.455 278.9 12.5 275 11.7
2009-09-07 07:15:11 51°15.352 2°50.433 278.9 12.5 276 11.7
2009-09-07 07:15:16 51°15.354 2°50.406 279.3 12.5 276 11.7
2009-09-07 07:15:21 51°15.356 2°50.378 279.2 12.4 275 11.6
2009-09-07 07:15:27 51°15.358 2°50.345 278.8 12.5 276 11.6
2009-09-07 07:15:31 51°15.359 2°50.323 278.8 12.5 276 11.5
2009-09-07 07:15:36 51°15.361 2°50.296 279 12.5 276 11.7
2009-09-07 07:15:41 51°15.363 2°50.268 279.2 12.5 276 11.6
2009-09-07 07:15:47 51°15.365 2°50.235 279.4 12.5 276 11.6
2009-09-07 07:15:51 51°15.366 2°50.214 279.3 12.4 276 11.5
2009-09-07 07:15:56 51°15.368 2°50.186 279.2 12.4 276 11.6
2009-09-07 07:16:02 51°15.37 2°50.153 279.3 12.5 277 11.7
2009-09-07 07:16:06 51°15.372 2°50.132 280.7 12.4 279 11.7
2009-09-07 07:16:11 51°15.375 2°50.104 281.7 12.4 278 11.7
2009-09-07 07:16:17 51°15.378 2°50.072 281.7 12.4 279 11.5
2009-09-07 07:16:22 51°15.38 2°50.045 282.2 12.4 278 11.1
2009-09-07 07:16:26 51°15.382 2°50.023 282 12.4 278 11.5
2009-09-07 07:16:31 51°15.385 2°49.996 282 12.4 279 11.6
2009-09-07 07:16:37 51°15.389 2°49.963 283.1 12.4 280 11.6
2009-09-07 07:16:42 51°15.391 2°49.936 283.4 12.4 280 11.7
2009-09-07 07:16:46 51°15.394 2°49.915 284 12.4 281 11.6
2009-09-07 07:16:51 51°15.397 2°49.888 284.5 12.4 280 11.6
2009-09-07 07:16:57 51°15.401 2°49.856 284.6 12.4 280 11.7
2009-09-07 07:17:02 51°15.404 2°49.829 283.9 12.4 279 11.6
2009-09-07 07:17:06 51°15.406 2°49.807 283.5 12.4 280 11.7
2009-09-07 07:17:11 51°15.409 2°49.78 283.3 12.4 280 11.6
2009-09-07 07:17:16 51°15.412 2°49.753 284.3 12.4 281 11.6
2009-09-07 07:17:22 51°15.416 2°49.721 284.2 12.4 280 11.7
2009-09-07 07:17:27 51°15.419 2°49.694 283.7 12.4 280 11.7
2009-09-07 07:17:31 51°15.421 2°49.672 283.4 12.4 279 11.7
2009-09-07 07:17:36 51°15.424 2°49.645 283 12.4 280 11.7
2009-09-07 07:17:42 51°15.428 2°49.613 283.5 12.4 280 11.7
2009-09-07 07:17:46 51°15.43 2°49.592 284.2 12.4 281 11.7
2009-09-07 07:17:51 51°15.433 2°49.565 284.3 12.4 280 11.7
2009-09-07 07:17:56 51°15.437 2°49.538 284.2 12.4 281 11.7
2009-09-07 07:18:01 51°15.44 2°49.511 284.8 12.4 281 11.8
2009-09-07 07:18:07 51°15.444 2°49.479 285 12.4 281 11.8
2009-09-07 07:18:11 51°15.446 2°49.457 284.5 12.4 280 11.7
2009-09-07 07:18:17 51°15.45 2°49.425 283.9 12.4 280 11.8
2009-09-07 07:18:22 51°15.453 2°49.398 284.4 12.3 281 11.8
2009-09-07 07:18:26 51°15.456 2°49.377 284.9 12.3 281 11.7
2009-09-07 07:18:31 51°15.459 2°49.35 285.2 12.3 282 11.7
2009-09-07 07:18:37 51°15.463 2°49.318 285.2 12.4 281 11.7
2009-09-07 07:18:42 51°15.467 2°49.291 285 12.4 281 11.7
2009-09-07 07:18:46 51°15.469 2°49.27 285.1 12.3 281 11.7
2009-09-07 07:18:51 51°15.473 2°49.243 285.3 12.4 282 11.7
2009-09-07 07:18:57 51°15.477 2°49.211 285.3 12.3 281 11.6
2009-09-07 07:19:02 51°15.48 2°49.184 285.4 12.4 281 11.5
2009-09-07 07:19:07 51°15.484 2°49.157 285.3 12.3 282 11.3
2009-09-07 07:19:11 51°15.486 2°49.136 285 12.3 281 11.4
2009-09-07 07:19:16 51°15.49 2°49.109 284.9 12.3 281 11.2
2009-09-07 07:19:22 51°15.494 2°49.077 284.8 12.3 281 11
2009-09-07 07:19:26 51°15.496 2°49.056 284.9 12.3 281 10.9
2009-09-07 07:19:31 51°15.5 2°49.029 285.1 12.3 281 10.7
2009-09-07 07:19:36 51°15.503 2°49.002 285.2 12.3 281 10.5
2009-09-07 07:19:42 51°15.507 2°48.97 284.7 12.3 280 10.4
2009-09-07 07:19:47 51°15.51 2°48.944 283.9 12.2 280 10.1
2009-09-07 07:19:51 51°15.512 2°48.922 283.5 12.2 280 10
2009-09-07 07:19:56 51°15.515 2°48.896 283.3 12.2 280 9.9
2009-09-07 07:20:01 51°15.518 2°48.869 283.9 12.2 281 9.7
2009-09-07 07:20:07 51°15.522 2°48.837 284.4 12.2 280 9.5
2009-09-07 07:20:11 51°15.524 2°48.816 284.1 12.2 280 9.5
2009-09-07 07:20:15 51°15.527 2°48.795 283.9 12.2 280 9.4
2009-09-07 07:20:22 51°15.53 2°48.757 283.3 12.2 279 9.3
2009-09-07 07:20:26 51°15.533 2°48.736 282.6 12.2 279 9.2
2009-09-07 07:20:31 51°15.536 2°48.709 283.1 12.2 281 9.2
2009-09-07 07:20:37 51°15.539 2°48.678 283.8 12.2 280 9.1
2009-09-07 07:20:42 51°15.543 2°48.651 284.3 12.2 281 9
2009-09-07 07:20:46 51°15.545 2°48.63 284.4 12.2 281 9.1
2009-09-07 07:20:52 51°15.549 2°48.598 284.5 12.2 281 9.1
2009-09-07 07:20:56 51°15.552 2°48.577 284.8 12.2 281 9.1
2009-09-07 07:21:02 51°15.556 2°48.545 285.2 12.2 281 9.1
2009-09-07 07:21:06 51°15.559 2°48.524 285 12.2 281 9.1
2009-09-07 07:21:11 51°15.562 2°48.498 284.7 12.2 281 9.1
2009-09-07 07:21:17 51°15.566 2°48.466 284.7 12.3 281 9.2
2009-09-07 07:21:22 51°15.569 2°48.439 284.7 12.3 281 9.2
2009-09-07 07:21:27 51°15.573 2°48.413 284.7 12.2 281 9.2
2009-09-07 07:21:31 51°15.575 2°48.391 284.7 12.3 281 9.3
2009-09-07 07:21:35 51°15.578 2°48.37 284.7 12.3 281 9.2
2009-09-07 07:21:42 51°15.582 2°48.333 284.4 12.3 281 9.4
2009-09-07 07:21:47 51°15.586 2°48.306 284.3 12.3 282 9.4
2009-09-07 07:21:51 51°15.589 2°48.285 284.7 12.3 282 9.4
2009-09-07 07:21:56 51°15.592 2°48.258 284.9 12.3 281 9.6
2009-09-07 07:22:02 51°15.596 2°48.226 284.5 12.3 281 9.6
2009-09-07 07:22:07 51°15.599 2°48.199 283.8 12.3 280 9.7
2009-09-07 07:22:11 51°15.601 2°48.178 283.4 12.2 280 9.8
2009-09-07 07:22:16 51°15.604 2°48.151 283.2 12.3 280 9.8
2009-09-07 07:22:21 51°15.607 2°48.124 282.9 12.3 279 9.9
2009-09-07 07:22:27 51°15.61 2°48.092 282.6 12.2 280 10
2009-09-07 07:22:31 51°15.612 2°48.071 282.6 12.2 280 10.1
2009-09-07 07:22:36 51°15.615 2°48.044 282.3 12.2 279 10.2
2009-09-07 07:22:42 51°15.619 2°48.012 282.3 12.2 280 10.3
2009-09-07 07:22:47 51°15.622 2°47.986 283.1 12.3 281 10.3
2009-09-07 07:22:51 51°15.624 2°47.964 283.4 12.3 280 10.5
2009-09-07 07:22:56 51°15.627 2°47.938 283.4 12.2 280 10.6
2009-09-07 07:23:01 51°15.63 2°47.911 283.1 12.2 280 10.8
2009-09-07 07:23:07 51°15.634 2°47.879 282.7 12.3 280 10.9
2009-09-07 07:23:11 51°15.636 2°47.857 282.9 12.3 280 10.9
2009-09-07 07:23:17 51°15.64 2°47.825 283.2 12.3 280 11.1
2009-09-07 07:23:22 51°15.642 2°47.798 283.1 12.3 280 11.2
2009-09-07 07:23:26 51°15.645 2°47.777 282.8 12.3 280 11.3
2009-09-07 07:23:31 51°15.648 2°47.75 282.9 12.3 280 11.5
2009-09-07 07:23:37 51°15.651 2°47.718 283 12.3 280 11.6
2009-09-07 07:23:42 51°15.654 2°47.691 282.6 12.3 279 11.7
2009-09-07 07:23:46 51°15.656 2°47.67 282.7 12.3 280 11.8
2009-09-07 07:23:51 51°15.66 2°47.643 283.7 12.4 281 12
2009-09-07 07:23:57 51°15.664 2°47.611 284.3 12.4 281 12.2
2009-09-07 07:24:02 51°15.667 2°47.584 284.5 12.3 281 12.3
2009-09-07 07:24:07 51°15.671 2°47.557 284.7 12.4 282 12.5
2009-09-07 07:24:11 51°15.673 2°47.536 284.9 12.4 282 12.5
2009-09-07 07:24:16 51°15.677 2°47.509 285.3 12.4 282 12.6
2009-09-07 07:24:22 51°15.681 2°47.477 285.5 12.4 282 12.8
2009-09-07 07:24:26 51°15.684 2°47.456 285.6 12.4 282 12.9
2009-09-07 07:24:31 51°15.688 2°47.429 285.9 12.4 282 13.1
2009-09-07 07:24:36 51°15.692 2°47.402 285.9 12.4 282 13.2
2009-09-07 07:24:41 51°15.695 2°47.375 286.1 12.4 282 13.3
2009-09-07 07:24:47 51°15.7 2°47.343 285.9 12.4 282 13.4
2009-09-07 07:24:51 51°15.702 2°47.322 285.5 12.4 282 13.4
2009-09-07 07:24:55 51°15.705 2°47.3 285.3 12.4 281 13.5
2009-09-07 07:25:02 51°15.71 2°47.262 285.1 12.4 282 13.5
2009-09-07 07:25:06 51°15.713 2°47.241 285.2 12.4 282 13.7
2009-09-07 07:25:11 51°15.717 2°47.214 285.6 12.4 282 13.8
2009-09-07 07:25:17 51°15.721 2°47.182 285.5 12.5 281 13.8
2009-09-07 07:25:22 51°15.724 2°47.155 285.3 12.4 282 13.9
2009-09-07 07:25:26 51°15.727 2°47.134 285.2 12.4 282 14.1
2009-09-07 07:25:31 51°15.731 2°47.107 285.1 12.5 281 14.2
2009-09-07 07:25:37 51°15.735 2°47.074 285 12.5 281 14.2
2009-09-07 07:25:42 51°15.738 2°47.047 284.8 12.5 281 14.2
2009-09-07 07:25:47 51°15.741 2°47.02 285 12.5 282 14.3
2009-09-07 07:25:51 51°15.744 2°46.999 285 12.5 281 14.4
2009-09-07 07:25:56 51°15.748 2°46.972 284.7 12.5 281 14.5
2009-09-07 07:26:02 51°15.752 2°46.939 285 12.5 283 14.6
2009-09-07 07:26:06 51°15.755 2°46.918 286.3 12.5 282 14.7
2009-09-07 07:26:11 51°15.759 2°46.891 286.3 12.5 282 15
2009-09-07 07:26:16 51°15.762 2°46.864 286.2 12.5 283 15.1
2009-09-07 07:26:22 51°15.767 2°46.832 286.6 12.5 283 15.2
2009-09-07 07:26:27 51°15.771 2°46.805 287.6 12.5 284 15.1
2009-09-07 07:26:31 51°15.775 2°46.784 287.7 12.5 283 15.4
2009-09-07 07:26:35 51°15.778 2°46.762 287.5 12.5 284 15.4
2009-09-07 07:26:41 51°15.783 2°46.73 287.5 12.5 283 15.4
2009-09-07 07:26:47 51°15.788 2°46.698 287.2 12.5 284 15.5
2009-09-07 07:26:51 51°15.791 2°46.676 287.2 12.4 283 15.5
2009-09-07 07:26:56 51°15.795 2°46.649 287 12.5 283 15.5
2009-09-07 07:27:02 51°15.8 2°46.617 287.5 12.4 284 15.5
2009-09-07 07:27:07 51°15.804 2°46.591 288.2 12.4 285 15.5
2009-09-07 07:27:11 51°15.808 2°46.569 289 12.5 286 15.5
2009-09-07 07:27:16 51°15.813 2°46.543 291 12.4 288 15.5
2009-09-07 07:27:22 51°15.819 2°46.512 291.9 12.4 287 15.5
2009-09-07 07:27:26 51°15.824 2°46.491 292.6 12.4 289 15.3
2009-09-07 07:27:31 51°15.829 2°46.465 293.3 12.4 289 15.1
2009-09-07 07:27:36 51°15.835 2°46.44 293.7 12.3 290 15
2009-09-07 07:27:41 51°15.841 2°46.414 294.1 12.4 290 15.1
2009-09-07 07:27:47 51°15.848 2°46.383 294.7 12.3 291 15.1
2009-09-07 07:27:51 51°15.853 2°46.363 295.6 12.3 291 15.1
2009-09-07 07:27:57 51°15.86 2°46.332 295.9 12.4 291 14.9
2009-09-07 07:28:02 51°15.867 2°46.307 296.4 12.4 292 14.8
2009-09-07 07:28:07 51°15.873 2°46.281 296.5 12.4 290 14.6
2009-09-07 07:28:11 51°15.878 2°46.261 295.7 12.3 291 14.5
2009-09-07 07:28:17 51°15.885 2°46.23 295.3 12.4 290 14.3
2009-09-07 07:28:22 51°15.89 2°46.204 295.2 12.3 290 14.1
2009-09-07 07:28:26 51°15.895 2°46.184 295.2 12.3 290 13.9
2009-09-07 07:28:31 51°15.901 2°46.158 295 12.4 290 13.7
2009-09-07 07:28:36 51°15.907 2°46.132 294.8 12.4 290 13.5
2009-09-07 07:28:42 51°15.915 2°46.102 296 12.3 292 13.3
2009-09-07 07:28:47 51°15.921 2°46.077 296.2 12.3 290 13.1
2009-09-07 07:28:51 51°15.925 2°46.056 295.7 12.3 291 12.8
2009-09-07 07:28:56 51°15.932 2°46.031 296.2 12.3 292 12.6
2009-09-07 07:29:02 51°15.939 2°46.001 296.7 12.2 292 12.3
2009-09-07 07:29:06 51°15.944 2°45.981 296.6 12.3 292 12
2009-09-07 07:29:11 51°15.951 2°45.955 296.6 12.3 292 11.9
2009-09-07 07:29:16 51°15.957 2°45.93 296.4 12.3 291 11.2
2009-09-07 07:29:22 51°15.965 2°45.9 296.4 12.2 292 10.6
2009-09-07 07:29:27 51°15.97 2°45.875 296.6 12.2 291 10.4
2009-09-07 07:29:31 51°15.975 2°45.855 296 12.2 290 10.3
2009-09-07 07:29:36 51°15.981 2°45.83 295.6 12.2 291 10.2
2009-09-07 07:29:41 51°15.987 2°45.805 295.7 12.2 291 10
2009-09-07 07:29:47 51°15.995 2°45.775 296.3 12.1 293 9.8
2009-09-07 07:29:51 51°16 2°45.755 297.1 12.1 292 9.6
2009-09-07 07:29:57 51°16.008 2°45.726 298.6 12 295 9.4
2009-09-07 07:30:02 51°16.015 2°45.702 299.1 12.1 293 9.3
2009-09-07 07:30:06 51°16.02 2°45.682 298.8 12 295 9.2
2009-09-07 07:30:11 51°16.027 2°45.658 299.1 12 293 9.2
2009-09-07 07:30:17 51°16.035 2°45.629 299.1 11.9 295 9
2009-09-07 07:30:22 51°16.042 2°45.605 299.1 11.9 294 9
2009-09-07 07:30:26 51°16.047 2°45.586 299.2 11.9 295 9
2009-09-07 07:30:31 51°16.054 2°45.561 299.2 12 294 9.1
2009-09-07 07:30:37 51°16.063 2°45.533 299.4 12 295 9.2
2009-09-07 07:30:42 51°16.07 2°45.508 299.8 12 294 9.2
2009-09-07 07:30:47 51°16.077 2°45.485 300.1 12 296 9.2
2009-09-07 07:30:51 51°16.082 2°45.465 300.3 12 295 9.4
2009-09-07 07:30:56 51°16.09 2°45.442 300.5 12 296 9.5
2009-09-07 07:31:02 51°16.098 2°45.413 300.4 12 295 9.5
2009-09-07 07:31:06 51°16.104 2°45.394 300.1 12 295 9.8
2009-09-07 07:31:11 51°16.111 2°45.369 299.9 12 295 9.5
2009-09-07 07:31:15 51°16.116 2°45.35 299.8 12 295 9.4
2009-09-07 07:31:22 51°16.126 2°45.317 300.4 12 296 9.4
2009-09-07 07:31:27 51°16.134 2°45.293 300.9 12 296 9.4
2009-09-07 07:31:31 51°16.14 2°45.274 301.3 12 297 9.3
2009-09-07 07:31:36 51°16.147 2°45.251 301.6 11.9 297 9.4
2009-09-07 07:31:42 51°16.157 2°45.223 302 11.9 298 9.4
2009-09-07 07:31:47 51°16.165 2°45.2 302.5 11.9 300 9.4
2009-09-07 07:31:51 51°16.172 2°45.183 306.4 11.8 304 9.3
2009-09-07 07:31:57 51°16.183 2°45.156 307.8 11.8 302 9.3
2009-09-07 07:32:02 51°16.192 2°45.135 308.6 11.7 305 9.4
2009-09-07 07:32:06 51°16.2 2°45.118 309.8 11.7 305 9.3
2009-09-07 07:32:11 51°16.209 2°45.097 310.5 11.7 306 9.3
2009-09-07 07:32:17 51°16.221 2°45.072 311.5 11.7 307 9.3
2009-09-07 07:32:22 51°16.231 2°45.052 312 11.7 307 9.4
2009-09-07 07:32:27 51°16.24 2°45.031 312.5 11.6 308 9.2
2009-09-07 07:32:31 51°16.249 2°45.015 313.3 11.6 309 9.1
2009-09-07 07:32:36 51°16.259 2°44.995 313.9 11.6 309 9.3
2009-09-07 07:32:42 51°16.271 2°44.971 314.1 11.6 309 9.3
2009-09-07 07:32:46 51°16.279 2°44.955 314.4 11.6 309 9.3
2009-09-07 07:32:51 51°16.289 2°44.936 314.5 11.6 309 9.3
2009-09-07 07:32:57 51°16.301 2°44.912 315.1 11.6 310 9.2
2009-09-07 07:33:02 51°16.312 2°44.892 315.8 11.6 310 9
2009-09-07 07:33:07 51°16.322 2°44.873 316.3 11.6 311 9
2009-09-07 07:33:11 51°16.331 2°44.857 316.5 11.7 311 9
2009-09-07 07:33:15 51°16.339 2°44.842 316.5 11.7 310 9
2009-09-07 07:33:22 51°16.354 2°44.814 316.2 11.7 310 9
2009-09-07 07:33:27 51°16.364 2°44.794 315.5 11.7 310 9.1
2009-09-07 07:33:31 51°16.372 2°44.778 315.1 11.7 309 9
2009-09-07 07:33:36 51°16.383 2°44.758 315 11.7 310 9.2
2009-09-07 07:33:42 51°16.395 2°44.734 315.4 11.7 310 9.6
2009-09-07 07:33:47 51°16.405 2°44.714 315.4 11.8 310 9.7
2009-09-07 07:33:51 51°16.414 2°44.698 315.2 11.8 310 9.9
2009-09-07 07:33:57 51°16.426 2°44.674 315.1 11.8 310 10.1
2009-09-07 07:34:02 51°16.437 2°44.654 315.7 11.8 311 10.2
2009-09-07 07:34:06 51°16.445 2°44.638 315.7 11.8 310 10.3
2009-09-07 07:34:12 51°16.458 2°44.614 315.1 11.8 311 10.5
2009-09-07 07:34:16 51°16.467 2°44.599 316.7 11.8 313 10.4
2009-09-07 07:34:22 51°16.48 2°44.576 317.5 11.8 312 10.3
2009-09-07 07:34:26 51°16.489 2°44.561 318.4 11.8 314 10.4
2009-09-07 07:34:31 51°16.5 2°44.542 319.4 11.7 314 10.5
2009-09-07 07:34:36 51°16.512 2°44.524 319.9 11.7 315 10.6
2009-09-07 07:34:42 51°16.525 2°44.502 320.3 11.7 314 10.7
2009-09-07 07:34:47 51°16.537 2°44.483 320.4 11.7 315 10.8
2009-09-07 07:34:51 51°16.546 2°44.468 319.8 11.7 313 11
2009-09-07 07:34:57 51°16.559 2°44.446 319.4 11.7 314 11.2
2009-09-07 07:35:02 51°16.571 2°44.427 319.4 11.8 314 11.5
2009-09-07 07:35:06 51°16.58 2°44.412 319.8 11.7 315 11.5
2009-09-07 07:35:11 51°16.591 2°44.394 320.5 11.7 315 11.8
2009-09-07 07:35:17 51°16.605 2°44.372 320.7 11.7 315 12.2
2009-09-07 07:35:22 51°16.617 2°44.354 321.2 11.7 315 12.5
2009-09-07 07:35:27 51°16.628 2°44.335 321.2 11.7 315 12.6
2009-09-07 07:35:31 51°16.637 2°44.321 321 11.8 315 12.8
2009-09-07 07:35:36 51°16.649 2°44.303 321.1 11.8 316 13
2009-09-07 07:35:42 51°16.663 2°44.281 321.3 11.7 315 13.1
2009-09-07 07:35:47 51°16.675 2°44.263 321.9 11.7 318 12.9
2009-09-07 07:35:51 51°16.685 2°44.249 323.3 11.7 318 13
2009-09-07 07:35:56 51°16.697 2°44.232 323.8 11.7 318 13.1
2009-09-07 07:36:02 51°16.711 2°44.212 324.5 11.7 319 13.3
2009-09-07 07:36:06 51°16.721 2°44.198 324.5 11.7 318 13.4
2009-09-07 07:36:11 51°16.733 2°44.181 324.7 11.7 319 13.3
2009-09-07 07:36:16 51°16.745 2°44.164 325 11.7 319 13.3
2009-09-07 07:36:21 51°16.758 2°44.147 325.1 11.7 319 13.4
2009-09-07 07:36:27 51°16.772 2°44.127 325.5 11.7 320 13.5
2009-09-07 07:36:31 51°16.782 2°44.114 326 11.7 319 13.5
2009-09-07 07:36:37 51°16.797 2°44.094 325.8 11.6 319 13.7
2009-09-07 07:36:42 51°16.809 2°44.076 325.2 11.6 318 13.7
2009-09-07 07:36:46 51°16.819 2°44.063 324.6 11.6 319 13.7
2009-09-07 07:36:51 51°16.83 2°44.045 324.4 11.7 318 13.8
2009-09-07 07:36:57 51°16.845 2°44.025 324.4 11.6 319 13.8
2009-09-07 07:37:02 51°16.857 2°44.008 324.8 11.7 318 13.8
2009-09-07 07:37:07 51°16.869 2°43.991 325.2 11.7 320 14
2009-09-07 07:37:11 51°16.879 2°43.978 325.7 11.7 319 13.7
2009-09-07 07:37:16 51°16.892 2°43.961 325.8 11.7 319 13.5
2009-09-07 07:37:22 51°16.906 2°43.94 325.4 11.7 319 13.2
2009-09-07 07:37:26 51°16.916 2°43.927 325.6 11.7 319 13.8
2009-09-07 07:37:31 51°16.928 2°43.91 325.9 11.7 319 13.9
2009-09-07 07:37:36 51°16.941 2°43.893 325.8 11.7 319 13.9
2009-09-07 07:37:42 51°16.955 2°43.873 325.4 11.7 319 13.8
2009-09-07 07:37:47 51°16.968 2°43.856 325.4 11.7 318 13.7
2009-09-07 07:37:51 51°16.977 2°43.842 325.2 11.7 319 13.7
2009-09-07 07:37:56 51°16.99 2°43.825 325.4 11.7 319 13.6
2009-09-07 07:38:02 51°17.004 2°43.805 325.5 11.7 319 13.5
2009-09-07 07:38:07 51°17.017 2°43.788 325.4 11.7 320 13.4
2009-09-07 07:38:11 51°17.026 2°43.774 325.5 11.8 318 13.3
2009-09-07 07:38:15 51°17.036 2°43.761 325.2 11.8 320 13.2
2009-09-07 07:38:21 51°17.051 2°43.74 325.5 11.8 318 13.2
2009-09-07 07:38:27 51°17.066 2°43.719 325.2 11.7 319 13.2
2009-09-07 07:38:31 51°17.075 2°43.705 324.7 11.8 317 13.1
2009-09-07 07:38:37 51°17.09 2°43.684 324.7 11.8 319 12.9
2009-09-07 07:38:42 51°17.102 2°43.667 324.9 11.8 318 13
2009-09-07 07:38:46 51°17.112 2°43.653 325 11.8 319 13.2
2009-09-07 07:38:52 51°17.127 2°43.632 325 11.8 318 13.4
2009-09-07 07:38:56 51°17.137 2°43.62 326.5 11.7 322 13.5
2009-09-07 07:39:02 51°17.152 2°43.6 327.5 11.7 320 13.6
2009-09-07 07:39:06 51°17.162 2°43.587 327.1 11.7 322 13.6
2009-09-07 07:39:11 51°17.175 2°43.572 328.8 11.6 324 13.5
2009-09-07 07:39:17 51°17.191 2°43.553 329.8 11.7 324 13.4
2009-09-07 07:39:22 51°17.204 2°43.538 330.7 11.7 325 13.3
2009-09-07 07:39:27 51°17.218 2°43.525 332.4 11.6 328 13.2
2009-09-07 07:39:31 51°17.228 2°43.513 333.8 11.6 327 13.3
2009-09-07 07:39:37 51°17.245 2°43.498 335.1 11.5 330 13.6
2009-09-07 07:39:42 51°17.259 2°43.485 336.2 11.5 330 13.6
2009-09-07 07:39:47 51°17.273 2°43.473 336.9 11.6 330 13.8
2009-09-07 07:39:51 51°17.284 2°43.463 337.6 11.6 332 12.8
2009-09-07 07:39:55 51°17.295 2°43.453 338.3 11.6 331 12.3
2009-09-07 07:40:02 51°17.315 2°43.437 338.5 11.5 332 12.4
2009-09-07 07:40:07 51°17.329 2°43.425 339.3 11.5 332 12.3
2009-09-07 07:40:11 51°17.341 2°43.416 340.5 11.5 334 12
2009-09-07 07:40:16 51°17.355 2°43.404 341 11.6 332 11.6
2009-09-07 07:40:21 51°17.37 2°43.393 340.5 11.6 335 11.2
2009-09-07 07:40:27 51°17.386 2°43.378 340.6 11.6 332 10.7
2009-09-07 07:40:31 51°17.398 2°43.37 341.4 11.5 336 10.6
2009-09-07 07:40:36 51°17.412 2°43.358 341.8 11.6 332 10.3
2009-09-07 07:40:42 51°17.43 2°43.345 341.8 11.5 335 9.8
2009-09-07 07:40:47 51°17.444 2°43.332 341 11.6 330 9.4
2009-09-07 07:40:51 51°17.455 2°43.323 340.8 11.5 333 8.8
2009-09-07 07:40:56 51°17.469 2°43.311 340.5 11.7 331 10.1
2009-09-07 07:41:01 51°17.484 2°43.299 339.8 11.6 333 10.9
2009-09-07 07:41:07 51°17.501 2°43.285 340.5 11.7 334 11.1
2009-09-07 07:41:11 51°17.513 2°43.275 340.9 11.8 332 11
2009-09-07 07:41:17 51°17.53 2°43.261 340.8 11.8 334 10.5
2009-09-07 07:41:22 51°17.544 2°43.249 340.3 11.8 332 10.1
2009-09-07 07:41:26 51°17.556 2°43.239 339.8 11.7 332 9.4
2009-09-07 07:41:31 51°17.57 2°43.228 340.1 11.7 333 8.2
2009-09-07 07:41:37 51°17.588 2°43.213 340.6 11.7 332 7.8
2009-09-07 07:41:42 51°17.602 2°43.201 340.5 11.6 332 8.1
2009-09-07 07:41:46 51°17.613 2°43.192 340.8 11.6 332 8.7
2009-09-07 07:41:51 51°17.627 2°43.179 340.7 11.7 332 9.3
2009-09-07 07:41:57 51°17.645 2°43.165 340.5 11.8 330 9.9
2009-09-07 07:42:02 51°17.658 2°43.15 337.3 11.9 327 10
2009-09-07 07:42:07 51°17.672 2°43.136 335.1 11.9 327 10.5
2009-09-07 07:42:11 51°17.683 2°43.123 333.2 12 323 10.6
2009-09-07 07:42:16 51°17.696 2°43.106 330.3 12 322 10.8
2009-09-07 07:42:22 51°17.711 2°43.085 327.9 12.1 318 11.4
2009-09-07 07:42:26 51°17.721 2°43.071 325.5 12.1 318 12.1
2009-09-07 07:42:31 51°17.733 2°43.053 324.3 12.1 317 12.7
2009-09-07 07:42:36 51°17.746 2°43.034 323.2 12.2 316 13.6
2009-09-07 07:42:41 51°17.758 2°43.015 321.7 12.2 315 14.8
2009-09-07 07:42:47 51°17.772 2°42.992 320.7 12.2 314 16.6
2009-09-07 07:42:51 51°17.781 2°42.976 319.7 12.2 314 17.9
2009-09-07 07:42:56 51°17.793 2°42.956 319.1 12.2 312 18.6
2009-09-07 07:43:01 51°17.804 2°42.936 318.2 12.2 313 19
2009-09-07 07:43:07 51°17.818 2°42.913 318.4 12.1 313 19.2
2009-09-07 07:43:11 51°17.826 2°42.897 318.2 12.1 312 19.8
2009-09-07 07:43:17 51°17.84 2°42.873 318.2 12 312 20
2009-09-07 07:43:22 51°17.851 2°42.852 317 12.1 309 20.4
2009-09-07 07:43:26 51°17.859 2°42.835 314.2 12 308 20.6
2009-09-07 07:43:31 51°17.869 2°42.814 312.9 12.1 306 21.1
2009-09-07 07:43:37 51°17.88 2°42.788 311.8 12 305 21.5
2009-09-07 07:43:42 51°17.89 2°42.766 310.7 12 304 21.6
2009-09-07 07:43:47 51°17.899 2°42.744 309.8 12 304 21.8
2009-09-07 07:43:51 51°17.907 2°42.727 308.9 12 304 21.8
2009-09-07 07:43:56 51°17.915 2°42.704 308.2 12 302 22.2
2009-09-07 07:44:02 51°17.926 2°42.677 307.5 12 302 22.3
2009-09-07 07:44:06 51°17.933 2°42.659 307.1 12.1 302 22.5
2009-09-07 07:44:11 51°17.942 2°42.636 306.9 12.1 302 22.3
2009-09-07 07:44:17 51°17.952 2°42.609 306.1 12.1 301 22.4
2009-09-07 07:44:22 51°17.961 2°42.586 306.9 12 302 22.2
2009-09-07 07:44:27 51°17.97 2°42.564 306.6 12 301 22.5
2009-09-07 07:44:31 51°17.977 2°42.546 306.5 12 302 22.1
2009-09-07 07:44:35 51°17.984 2°42.527 306.8 12 301 22.2
2009-09-07 07:44:42 51°17.997 2°42.496 307.1 12 302 22.1
2009-09-07 07:44:47 51°18.005 2°42.473 307 12.1 301 22.3
2009-09-07 07:44:51 51°18.012 2°42.455 306.5 12 302 22.5
2009-09-07 07:44:56 51°18.021 2°42.432 307 12 302 22.8
2009-09-07 07:45:01 51°18.03 2°42.409 307.1 12 301 22.9
2009-09-07 07:45:07 51°18.04 2°42.383 307.2 12 303 23
2009-09-07 07:45:11 51°18.047 2°42.365 307.7 12 302 23.1
2009-09-07 07:45:17 51°18.058 2°42.338 308.1 12 302 22.9
2009-09-07 07:45:22 51°18.067 2°42.315 308.1 12 303 22.8
2009-09-07 07:45:27 51°18.075 2°42.293 308 12 302 22.7
2009-09-07 07:45:32 51°18.084 2°42.27 307.1 12 301 22.6
2009-09-07 07:45:36 51°18.091 2°42.252 307.1 11.9 303 22.5
2009-09-07 07:45:42 51°18.102 2°42.225 307.8 12 302 22.4
2009-09-07 07:45:46 51°18.109 2°42.208 308.3 12 303 22.4
2009-09-07 07:45:51 51°18.117 2°42.185 308 12 302 22.6
2009-09-07 07:45:56 51°18.126 2°42.163 308 12 302 22.4
2009-09-07 07:46:02 51°18.137 2°42.135 307.7 12 301 22.5
2009-09-07 07:46:07 51°18.145 2°42.113 307.4 12 302 22.5
2009-09-07 07:46:11 51°18.153 2°42.095 307.9 12 302 22.2
2009-09-07 07:46:17 51°18.163 2°42.068 307.8 12 302 22.3
2009-09-07 07:46:22 51°18.172 2°42.046 308 11.9 302 22.3
2009-09-07 07:46:26 51°18.179 2°42.028 308.5 12 302 22.3
2009-09-07 07:46:31 51°18.188 2°42.006 308.6 12 303 22.1
2009-09-07 07:46:37 51°18.198 2°41.979 308.7 12 302 22
2009-09-07 07:46:42 51°18.207 2°41.956 308.7 12 302 22.2
2009-09-07 07:46:47 51°18.217 2°41.934 309.1 11.9 303 21.9
2009-09-07 07:46:51 51°18.223 2°41.916 309 12 301 21.9
2009-09-07 07:46:56 51°18.232 2°41.894 308.6 12 304 21.8
2009-09-07 07:47:02 51°18.243 2°41.867 309.3 12 301 21.6
2009-09-07 07:47:07 51°18.252 2°41.844 308.7 12 303 21.7
2009-09-07 07:47:11 51°18.259 2°41.826 308.3 12 301 21.7
2009-09-07 07:47:16 51°18.267 2°41.803 307.9 12 302 21.5
2009-09-07 07:47:22 51°18.278 2°41.776 307.8 12 301 21.7
2009-09-07 07:47:26 51°18.284 2°41.758 307.6 12 301 21.6
2009-09-07 07:47:31 51°18.293 2°41.735 307.5 12 300 21.6
2009-09-07 07:47:36 51°18.301 2°41.712 307.1 12 301 21.5
2009-09-07 07:47:41 51°18.31 2°41.689 307.1 12 301 21.3
2009-09-07 07:47:47 51°18.32 2°41.662 307.1 12 301 20.9
2009-09-07 07:47:51 51°18.327 2°41.644 307.8 11.9 301 20.7
2009-09-07 07:47:56 51°18.335 2°41.621 307.8 12 301 19.4
2009-09-07 07:48:01 51°18.344 2°41.598 307.6 12 301 19.3
2009-09-07 07:48:07 51°18.354 2°41.571 307.5 12 302 20.4
2009-09-07 07:48:11 51°18.361 2°41.553 308 11.9 302 20.7
2009-09-07 07:48:17 51°18.372 2°41.527 308.8 11.9 302 20.5
2009-09-07 07:48:22 51°18.381 2°41.505 309.3 11.9 304 20.8
2009-09-07 07:48:26 51°18.388 2°41.487 309.7 11.9 303 20.3
2009-09-07 07:48:31 51°18.397 2°41.465 310 12 303 18.7
2009-09-07 07:48:37 51°18.408 2°41.438 309.3 12 303 17.3
2009-09-07 07:48:42 51°18.417 2°41.416 309.4 11.9 303 18.5
2009-09-07 07:48:47 51°18.426 2°41.394 309.6 12 303 18.8
2009-09-07 07:48:51 51°18.433 2°41.376 309.9 12 304 18.8
2009-09-07 07:48:56 51°18.443 2°41.354 310.2 12 303 18.9
2009-09-07 07:49:02 51°18.453 2°41.327 309.5 12 303 19.1
2009-09-07 07:49:06 51°18.461 2°41.31 309.7 12 304 19
2009-09-07 07:49:11 51°18.471 2°41.288 310.1 12 304 17.8
2009-09-07 07:49:16 51°18.479 2°41.265 310 12 303 15.8
2009-09-07 07:49:22 51°18.49 2°41.238 309.4 12.1 302 15.5
2009-09-07 07:49:27 51°18.499 2°41.216 308.8 12.1 303 16.6
2009-09-07 07:49:31 51°18.507 2°41.198 308.8 12.1 303 17.3
2009-09-07 07:49:35 51°18.514 2°41.18 309.4 12.1 304 17.3
2009-09-07 07:49:42 51°18.527 2°41.149 309.4 12 303 17
2009-09-07 07:49:47 51°18.536 2°41.127 308.8 12.1 303 16.5
2009-09-07 07:49:51 51°18.543 2°41.109 309.2 12 304 17.2
2009-09-07 07:49:57 51°18.554 2°41.082 309.2 12 303 17.1
2009-09-07 07:50:02 51°18.563 2°41.06 309.5 12.1 303 16.4
2009-09-07 07:50:06 51°18.571 2°41.042 309.6 12.1 304 14.6
2009-09-07 07:50:11 51°18.58 2°41.02 309.7 12.1 302 12
2009-09-07 07:50:17 51°18.591 2°40.992 309.3 12.1 303 14.2
2009-09-07 07:50:22 51°18.6 2°40.97 309.2 12.2 303 13.7
2009-09-07 07:50:27 51°18.609 2°40.948 310 12.2 304 12.2
2009-09-07 07:50:31 51°18.617 2°40.929 310 12.3 302 15.2
2009-09-07 07:50:36 51°18.626 2°40.907 309.5 12.2 305 16.6
2009-09-07 07:50:42 51°18.637 2°40.88 310 12.3 303 14
2009-09-07 07:50:46 51°18.645 2°40.862 309.5 12.3 303 13.2
2009-09-07 07:50:51 51°18.654 2°40.839 309.4 12.2 304 15.6
2009-09-07 07:50:57 51°18.665 2°40.812 309.5 12.3 303 17.2
2009-09-07 07:51:02 51°18.675 2°40.789 309.6 12.3 304 18.2
2009-09-07 07:51:06 51°18.682 2°40.771 310 12.3 304 18.5
2009-09-07 07:51:11 51°18.692 2°40.748 310 12.3 304 17.1
2009-09-07 07:51:16 51°18.702 2°40.726 309.6 12.3 304 14.7
2009-09-07 07:51:22 51°18.713 2°40.699 309.6 12.3 304 15.5
2009-09-07 07:51:27 51°18.722 2°40.676 309.5 12.2 303 16.3
2009-09-07 07:51:31 51°18.73 2°40.658 309.8 12.2 304 16.6
2009-09-07 07:51:36 51°18.739 2°40.636 309.7 12.3 303 16.3
2009-09-07 07:51:41 51°18.748 2°40.613 308.7 12.3 303 15.7
2009-09-07 07:51:47 51°18.76 2°40.586 309.1 12.3 305 14.3
2009-09-07 07:51:51 51°18.767 2°40.568 309.7 12.3 302 11.7
2009-09-07 07:51:56 51°18.776 2°40.544 309 12.3 301 11.6
2009-09-07 07:52:02 51°18.787 2°40.516 308.4 12.4 302 15.4
2009-09-07 07:52:07 51°18.796 2°40.493 309.3 12.4 303 16.6
2009-09-07 07:52:11 51°18.804 2°40.475 309.6 12.5 303 17
2009-09-07 07:52:16 51°18.814 2°40.452 309.7 12.4 305 17.4
2009-09-07 07:52:21 51°18.824 2°40.43 310.4 12.3 305 18
2009-09-07 07:52:26 51°18.833 2°40.407 310.2 12.3 303 18.5
2009-09-07 07:52:31 51°18.842 2°40.384 309.2 12.3 303 19
2009-09-07 07:52:37 51°18.853 2°40.357 308.8 12.3 302 19.9
2009-09-07 07:52:41 51°18.861 2°40.338 308.2 12.3 302 20.4
2009-09-07 07:52:46 51°18.87 2°40.316 308 12.3 302 20.8
2009-09-07 07:52:51 51°18.879 2°40.293 308.3 12.3 303 21.1
2009-09-07 07:52:57 51°18.89 2°40.265 308.4 12.2 302 21.2
2009-09-07 07:53:02 51°18.899 2°40.243 308.6 12.2 303 21.1
2009-09-07 07:53:06 51°18.906 2°40.225 309.1 12.2 304 21
2009-09-07 07:53:11 51°18.916 2°40.203 309.7 12.1 305 21.4
2009-09-07 07:53:17 51°18.927 2°40.176 310.1 12.1 304 20.7
2009-09-07 07:53:22 51°18.937 2°40.154 309.8 12.1 303 21
2009-09-07 07:53:27 51°18.946 2°40.131 309 12.1 303 20.7
2009-09-07 07:53:31 51°18.954 2°40.114 309.2 12.1 304 20.8
2009-09-07 07:53:37 51°18.964 2°40.087 309.4 12.1 303 20.9
2009-09-07 07:53:42 51°18.974 2°40.064 309.2 12.1 303 21.1
2009-09-07 07:53:47 51°18.983 2°40.042 309.3 12.1 304 21.3
2009-09-07 07:53:51 51°18.99 2°40.024 309.3 12.1 303 21.2
2009-09-07 07:53:56 51°19 2°40.002 309.3 12.1 304 21.2
2009-09-07 07:54:02 51°19.01 2°39.975 309.2 12.1 302 21.4
2009-09-07 07:54:07 51°19.019 2°39.952 308 12.1 302 21.3
2009-09-07 07:54:11 51°19.027 2°39.934 308.6 12.1 304 21.5
2009-09-07 07:54:16 51°19.036 2°39.912 309.1 12.1 302 21.4
2009-09-07 07:54:21 51°19.045 2°39.89 308.9 12 304 21.7
2009-09-07 07:54:26 51°19.054 2°39.868 309.5 12 304 22
2009-09-07 07:54:31 51°19.064 2°39.846 309.5 12 304 22
2009-09-07 07:54:37 51°19.075 2°39.819 309.4 12 304 22.3
2009-09-07 07:54:41 51°19.082 2°39.801 309.4 12 303 22.4
2009-09-07 07:54:46 51°19.091 2°39.779 308.4 12 302 22.6
2009-09-07 07:54:51 51°19.1 2°39.757 308.5 12 304 22.7
2009-09-07 07:54:57 51°19.111 2°39.73 309.1 12 303 22.9
2009-09-07 07:55:02 51°19.12 2°39.708 309.2 12 304 23.1
2009-09-07 07:55:06 51°19.127 2°39.69 309.4 12 304 23.5
2009-09-07 07:55:11 51°19.137 2°39.668 309.7 12 304 23.8
2009-09-07 07:55:17 51°19.148 2°39.642 309.9 12 304 24
2009-09-07 07:55:22 51°19.157 2°39.62 310 12 303 24.3
2009-09-07 07:55:26 51°19.164 2°39.602 309.5 12 303 24.5
2009-09-07 07:55:31 51°19.173 2°39.58 309.4 12 304 24.8
2009-09-07 07:55:37 51°19.184 2°39.553 309.6 12 303 24.9
2009-09-07 07:55:42 51°19.193 2°39.531 309.5 11.9 303 25.2
2009-09-07 07:55:47 51°19.201 2°39.508 307.8 12 299 25.4
2009-09-07 07:55:51 51°19.207 2°39.489 305.2 11.9 299 25.5
2009-09-07 07:55:56 51°19.216 2°39.466 304.2 12 297 25.7
2009-09-07 07:56:02 51°19.224 2°39.437 302.8 12 296 25.9
2009-09-07 07:56:07 51°19.231 2°39.414 301.9 12 296 26.3
2009-09-07 07:56:11 51°19.237 2°39.394 301.3 12 295 26.6
2009-09-07 07:56:16 51°19.243 2°39.37 300.3 12 294 26.6
2009-09-07 07:56:22 51°19.251 2°39.341 299.8 12 295 26.8
2009-09-07 07:56:27 51°19.258 2°39.317 299.8 12 294 26.8
2009-09-07 07:56:31 51°19.264 2°39.297 299.1 12.1 293 26.9
2009-09-07 07:56:36 51°19.27 2°39.272 298.8 12.1 294 27.2
2009-09-07 07:56:41 51°19.277 2°39.248 298.8 12.1 293 27.2
2009-09-07 07:56:46 51°19.283 2°39.223 298.4 12 292 27.2
2009-09-07 07:56:51 51°19.29 2°39.198 298.4 12 293 27.4
2009-09-07 07:56:57 51°19.297 2°39.169 298.3 12 293 27.3
2009-09-07 07:57:01 51°19.302 2°39.149 298.3 12 292 27.2
2009-09-07 07:57:06 51°19.308 2°39.124 297.7 12.1 291 27.3
2009-09-07 07:57:11 51°19.315 2°39.099 297.4 12 292 27.5
2009-09-07 07:57:17 51°19.323 2°39.07 298.1 12 293 27.2
2009-09-07 07:57:22 51°19.329 2°39.045 298.6 12 292 27.1
2009-09-07 07:57:26 51°19.334 2°39.026 298.7 12.1 293 27.1
2009-09-07 07:57:31 51°19.341 2°39.001 298.4 12.1 292 27
2009-09-07 07:57:37 51°19.348 2°38.971 298.1 12.2 291 27
2009-09-07 07:57:42 51°19.354 2°38.946 297.7 12.1 291 26.9
2009-09-07 07:57:47 51°19.36 2°38.921 297.1 12.1 292 26.8
2009-09-07 07:57:51 51°19.365 2°38.901 297.4 12.1 292 26.8
2009-09-07 07:57:56 51°19.372 2°38.876 298.1 12.1 292 26.6
2009-09-07 07:58:02 51°19.379 2°38.846 298.5 12.1 292 26.6
2009-09-07 07:58:07 51°19.386 2°38.821 298.6 12.1 293 26.1
2009-09-07 07:58:11 51°19.391 2°38.802 298.8 12.2 293 25.9
2009-09-07 07:58:16 51°19.398 2°38.777 298.9 12.1 293 25.9
2009-09-07 07:58:22 51°19.406 2°38.747 299 12.1 294 25.4
2009-09-07 07:58:27 51°19.412 2°38.723 299.3 12.1 293 25.3
2009-09-07 07:58:31 51°19.417 2°38.703 299.1 12.1 292 25.3
2009-09-07 07:58:36 51°19.424 2°38.678 298.4 12.2 292 24.8
2009-09-07 07:58:41 51°19.43 2°38.653 298.7 12.1 293 24.7
2009-09-07 07:58:47 51°19.438 2°38.623 299 12.1 292 24.4
2009-09-07 07:58:51 51°19.443 2°38.603 299.1 12.1 294 23.9
2009-09-07 07:58:57 51°19.451 2°38.573 299.5 12.1 293 24
2009-09-07 07:59:01 51°19.457 2°38.554 299.8 12.1 294 23.6
2009-09-07 07:59:06 51°19.463 2°38.529 299.8 12.2 293 23.3
2009-09-07 07:59:11 51°19.47 2°38.505 299.7 12.1 293 23.3
2009-09-07 07:59:17 51°19.478 2°38.475 299.6 12.1 294 23.1
2009-09-07 07:59:22 51°19.485 2°38.45 299.8 12.2 294 22.7
2009-09-07 07:59:26 51°19.49 2°38.43 299.9 12.2 293 22.6
2009-09-07 07:59:31 51°19.497 2°38.406 299.2 12.2 293 21.6
2009-09-07 07:59:37 51°19.505 2°38.376 299.1 12.2 293 21.2
2009-09-07 07:59:42 51°19.511 2°38.35 299 12.2 293 21.6
2009-09-07 07:59:46 51°19.516 2°38.33 298.9 12.2 293 22.1
2009-09-07 07:59:51 51°19.523 2°38.305 299.1 12.2 292 21.9
2009-09-07 07:59:57 51°19.531 2°38.275 298.6 12.2 292 21.1
2009-09-07 08:00:02 51°19.537 2°38.25 298.2 12.3 292 21.4
2009-09-07 08:00:06 51°19.542 2°38.23 298 12.3 292 21
2009-09-07 08:00:11 51°19.549 2°38.205 298.4 12.2 293 20.1
2009-09-07 08:00:16 51°19.555 2°38.18 298.8 12.3 293 20.3
2009-09-07 08:00:22 51°19.563 2°38.149 298.9 12.3 293 21.2
2009-09-07 08:00:26 51°19.569 2°38.129 299.1 12.3 293 21.4
2009-09-07 08:00:31 51°19.575 2°38.104 299.6 12.3 293 21.4
2009-09-07 08:00:36 51°19.582 2°38.079 299.3 12.3 294 20.8
2009-09-07 08:00:42 51°19.59 2°38.049 299.2 12.3 293 20.4
2009-09-07 08:00:47 51°19.597 2°38.025 299.5 12.3 293 18.5
2009-09-07 08:00:51 51°19.602 2°38.004 299.1 12.3 292 20.2
2009-09-07 08:00:56 51°19.609 2°37.98 298.8 12.3 294 20.8
2009-09-07 08:01:01 51°19.615 2°37.955 299.1 12.3 293 19.7
2009-09-07 08:01:07 51°19.623 2°37.925 299.1 12.3 293 19.4
2009-09-07 08:01:11 51°19.629 2°37.905 298.9 12.3 293 20.3
2009-09-07 08:01:17 51°19.636 2°37.874 297.9 12.3 292 20.5
2009-09-07 08:01:21 51°19.642 2°37.854 298.5 12.3 293 20.2
2009-09-07 08:01:26 51°19.648 2°37.829 298.8 12.3 293 20.6
2009-09-07 08:01:31 51°19.655 2°37.804 299.1 12.3 294 20.6
2009-09-07 08:01:37 51°19.663 2°37.774 299.6 12.3 293 20.9
2009-09-07 08:01:42 51°19.67 2°37.749 299 12.3 293 20
2009-09-07 08:01:46 51°19.675 2°37.729 298.4 12.3 292 19
2009-09-07 08:01:51 51°19.681 2°37.704 298.4 12.2 293 19.1
2009-09-07 08:01:57 51°19.689 2°37.674 298.5 12.1 291 20.4
2009-09-07 08:02:01 51°19.694 2°37.654 298.1 12.1 293 20.7
2009-09-07 08:02:07 51°19.702 2°37.624 298.2 12.2 293 19.6
2009-09-07 08:02:11 51°19.707 2°37.605 298.9 12.1 295 20.1
2009-09-07 08:02:17 51°19.717 2°37.576 301.8 12.1 297 20.7
2009-09-07 08:02:22 51°19.724 2°37.553 303.6 12.1 297 20.1
2009-09-07 08:02:26 51°19.731 2°37.534 304.7 12 300 20.3
2009-09-07 08:02:31 51°19.739 2°37.511 306.4 12.1 299 20.5
2009-09-07 08:02:36 51°19.748 2°37.488 307.6 12 302 21
2009-09-07 08:02:42 51°19.759 2°37.462 308.4 12 302 21.1
2009-09-07 08:02:47 51°19.767 2°37.44 308.5 12 302 20.4
2009-09-07 08:02:51 51°19.775 2°37.422 308.9 12 303 19.2
2009-09-07 08:02:56 51°19.783 2°37.399 309.3 12 302 18.1
2009-09-07 08:03:01 51°19.792 2°37.377 309.5 12 303 19.5
2009-09-07 08:03:07 51°19.803 2°37.351 310 12 303 20.1
2009-09-07 08:03:11 51°19.811 2°37.333 310.2 12 304 20.7
2009-09-07 08:03:16 51°19.82 2°37.31 310 12 304 20.7
2009-09-07 08:03:21 51°19.829 2°37.288 310.6 12 303 20.6
2009-09-07 08:03:27 51°19.84 2°37.261 310.9 12 304 20.7
2009-09-07 08:03:31 51°19.847 2°37.244 310.9 12 304 20.7
2009-09-07 08:03:37 51°19.858 2°37.217 311.3 12 304 20.3
2009-09-07 08:03:41 51°19.866 2°37.199 310.7 12 303 19.6
2009-09-07 08:03:46 51°19.875 2°37.177 310.4 12 304 20.1
2009-09-07 08:03:51 51°19.884 2°37.155 310.7 11.9 304 20.1
2009-09-07 08:03:57 51°19.895 2°37.128 311.3 12 303 20.9
2009-09-07 08:04:01 51°19.903 2°37.11 310.9 12 304 20.8
2009-09-07 08:04:07 51°19.914 2°37.084 310.9 12 304 20.3
2009-09-07 08:04:11 51°19.922 2°37.066 310.8 12 303 19.7
2009-09-07 08:04:17 51°19.932 2°37.04 310.7 11.9 303 19.2
2009-09-07 08:04:22 51°19.942 2°37.017 310.4 12 303 18.6
2009-09-07 08:04:26 51°19.949 2°36.999 310.1 12 303 19
2009-09-07 08:04:31 51°19.958 2°36.977 310.1 12 303 19.2
2009-09-07 08:04:37 51°19.969 2°36.95 310.1 12 303 19.6
2009-09-07 08:04:42 51°19.978 2°36.928 310 12 303 19.6
2009-09-07 08:04:47 51°19.987 2°36.906 309.9 12 302 20
2009-09-07 08:04:51 51°19.994 2°36.888 309.9 12 302 20.1
2009-09-07 08:04:56 51°20.003 2°36.865 309.7 12.1 303 20.2
2009-09-07 08:05:02 51°20.014 2°36.838 309.9 12 303 20.3
2009-09-07 08:05:07 51°20.023 2°36.816 309.7 12 302 19.9
2009-09-07 08:05:11 51°20.03 2°36.798 310.1 12 303 19.9
2009-09-07 08:05:16 51°20.039 2°36.775 309.7 12 302 19.7
2009-09-07 08:05:21 51°20.048 2°36.753 309.3 12 303 20.2
2009-09-07 08:05:27 51°20.059 2°36.726 309.9 12 302 19.9
2009-09-07 08:05:31 51°20.066 2°36.708 310 12 303 20.3
2009-09-07 08:05:36 51°20.075 2°36.686 310.1 12 303 20.2
2009-09-07 08:05:41 51°20.084 2°36.663 309.8 12 303 20.8
2009-09-07 08:05:47 51°20.095 2°36.637 309.9 11.9 303 20.6
2009-09-07 08:05:51 51°20.103 2°36.619 310.2 12 303 20.7
2009-09-07 08:05:57 51°20.114 2°36.592 309.3 11.9 303 20.4
2009-09-07 08:06:01 51°20.121 2°36.575 310 11.9 303 20.7
2009-09-07 08:06:06 51°20.13 2°36.552 310.2 11.9 302 20.5
2009-09-07 08:06:11 51°20.139 2°36.53 309.4 11.9 303 20.2
2009-09-07 08:06:17 51°20.149 2°36.503 309.2 11.9 301 20
2009-09-07 08:06:22 51°20.158 2°36.481 309 11.9 303 20.3
2009-09-07 08:06:26 51°20.165 2°36.463 308.9 11.9 302 20.2
2009-09-07 08:06:31 51°20.174 2°36.441 309.4 11.9 303 19.8
2009-09-07 08:06:37 51°20.185 2°36.414 310 12 302 20.2
2009-09-07 08:06:42 51°20.193 2°36.391 309.3 12 302 20
2009-09-07 08:06:46 51°20.201 2°36.373 309.2 12 302 19.5
2009-09-07 08:06:51 51°20.209 2°36.351 309.8 12 302 18.3
2009-09-07 08:06:57 51°20.22 2°36.323 309 12.1 302 19
2009-09-07 08:07:02 51°20.229 2°36.301 308.5 12 301 18.6
2009-09-07 08:07:07 51°20.238 2°36.279 309.3 12 304 19.1
2009-09-07 08:07:11 51°20.244 2°36.26 309.7 12 301 18.7
2009-09-07 08:07:16 51°20.253 2°36.238 309.3 12 302 18.5
2009-09-07 08:07:22 51°20.264 2°36.21 308.7 12 300 18.5
2009-09-07 08:07:27 51°20.272 2°36.188 308.4 12 301 18.1
2009-09-07 08:07:31 51°20.279 2°36.169 307.8 12 300 18
2009-09-07 08:07:36 51°20.287 2°36.146 307.8 12 301 17.8
2009-09-07 08:07:41 51°20.296 2°36.124 308.6 12 302 18
2009-09-07 08:07:47 51°20.307 2°36.097 309.2 12 302 17.6
2009-09-07 08:07:51 51°20.314 2°36.079 309.6 12 302 17.6
2009-09-07 08:07:56 51°20.322 2°36.056 309.3 12 301 17
2009-09-07 08:08:01 51°20.331 2°36.033 309 12 302 17.4
2009-09-07 08:08:07 51°20.342 2°36.006 309.1 12.1 302 17.3
2009-09-07 08:08:11 51°20.349 2°35.988 309.2 12.1 302 17.5
2009-09-07 08:08:17 51°20.36 2°35.961 309.3 12.1 303 16.8
2009-09-07 08:08:21 51°20.367 2°35.943 309.7 12.1 302 16.9
2009-09-07 08:08:26 51°20.376 2°35.92 310 12.1 302 16.9
2009-09-07 08:08:31 51°20.385 2°35.898 309.8 12.1 303 17.1
2009-09-07 08:08:37 51°20.396 2°35.87 309.9 12.1 302 17.3
2009-09-07 08:08:42 51°20.404 2°35.848 309.9 12.1 302 17.2
2009-09-07 08:08:46 51°20.412 2°35.829 309.5 12.1 302 16.8
2009-09-07 08:08:51 51°20.42 2°35.807 310.1 12.1 302 17.6
2009-09-07 08:08:57 51°20.431 2°35.779 310.2 12.1 303 17.6
2009-09-07 08:09:02 51°20.44 2°35.757 310.1 12.2 302 17.8
2009-09-07 08:09:07 51°20.449 2°35.734 310.2 12.2 302 18.1
2009-09-07 08:09:11 51°20.456 2°35.716 310.3 12.1 303 18.6
2009-09-07 08:09:17 51°20.467 2°35.689 310.6 12.2 302 18.9
2009-09-07 08:09:22 51°20.476 2°35.666 309.7 12.1 302 18.3
2009-09-07 08:09:27 51°20.484 2°35.643 309 12.2 300 20.1
2009-09-07 08:09:31 51°20.491 2°35.624 308.7 12.1 302 20.9
2009-09-07 08:09:36 51°20.5 2°35.601 309.3 12.2 302 21.2
2009-09-07 08:09:42 51°20.511 2°35.574 309.8 12.2 302 21.9
2009-09-07 08:09:47 51°20.52 2°35.551 309.3 12.1 302 22.4
2009-09-07 08:09:51 51°20.526 2°35.532 309.5 12.2 302 23
2009-09-07 08:09:56 51°20.535 2°35.509 309.6 12.2 302 24.4
2009-09-07 08:10:01 51°20.544 2°35.486 309.5 12.2 302 24.8
2009-09-07 08:10:07 51°20.554 2°35.458 309.3 12.2 301 25.5
2009-09-07 08:10:11 51°20.562 2°35.44 309 12.2 301 25
2009-09-07 08:10:17 51°20.572 2°35.412 308.9 12.2 302 25.9
2009-09-07 08:10:21 51°20.579 2°35.394 309.1 12.2 302 26.8
2009-09-07 08:10:27 51°20.59 2°35.367 309.5 12.2 302 27.1
2009-09-07 08:10:31 51°20.597 2°35.348 308.6 12.1 300 27.3
2009-09-07 08:10:37 51°20.607 2°35.321 308.4 12.1 301 25.8
2009-09-07 08:10:42 51°20.616 2°35.298 309 12.1 301 25.3
2009-09-07 08:10:46 51°20.623 2°35.28 309.1 12.1 301 26.1
2009-09-07 08:10:51 51°20.632 2°35.257 309.4 12.1 301 26.9
2009-09-07 08:10:57 51°20.642 2°35.229 309.5 12.1 301 27.2
2009-09-07 08:11:02 51°20.651 2°35.206 309.3 12.1 301 27.5
2009-09-07 08:11:06 51°20.658 2°35.188 309.4 12.1 302 28.1
2009-09-07 08:11:11 51°20.666 2°35.165 309 12.1 300 28.4
2009-09-07 08:11:17 51°20.676 2°35.138 308.3 12 301 28.6
2009-09-07 08:11:22 51°20.685 2°35.115 308.4 12.1 299 29
2009-09-07 08:11:27 51°20.694 2°35.092 308.2 12 301 29.3
2009-09-07 08:11:31 51°20.7 2°35.073 307.9 12.1 300 30
2009-09-07 08:11:37 51°20.711 2°35.046 307.9 12.1 300 26.6
2009-09-07 08:11:42 51°20.72 2°35.023 308.7 12 301 27.7
2009-09-07 08:11:47 51°20.728 2°35 309 12.1 300 28.8
2009-09-07 08:11:51 51°20.735 2°34.981 308.5 12.1 300 29.5
2009-09-07 08:11:56 51°20.743 2°34.958 308.1 12 300 29.7
2009-09-07 08:12:02 51°20.753 2°34.93 308 12.1 300 29.8
2009-09-07 08:12:07 51°20.761 2°34.907 308.2 12.1 300 29.2
2009-09-07 08:12:11 51°20.768 2°34.889 308.2 12 300 28.9
2009-09-07 08:12:16 51°20.776 2°34.866 308.4 12 301 28.5
2009-09-07 08:12:21 51°20.785 2°34.843 309.1 12 301 28.4
2009-09-07 08:12:27 51°20.795 2°34.816 309.3 12 301 28.8
2009-09-07 08:12:31 51°20.802 2°34.798 309.5 12 302 28.8
2009-09-07 08:12:37 51°20.812 2°34.77 309.3 12 300 27.4